createdAt,value
2019-06-26T00:00:48.418Z,301.41
2019-06-26T00:01:48.446Z,301.46
2019-06-26T00:02:48.404Z,301.79
2019-06-26T00:03:48.400Z,301.55
2019-06-26T00:04:48.380Z,301.54
2019-06-26T00:05:48.394Z,301.39
2019-06-26T00:06:48.365Z,301.52
2019-06-26T00:07:48.368Z,301.43
2019-06-26T00:08:48.379Z,301.55
2019-06-26T00:09:48.329Z,301.54
2019-06-26T00:10:48.314Z,301.73
2019-06-26T00:11:48.313Z,301.58
2019-06-26T00:12:48.334Z,301.43
2019-06-26T00:13:48.306Z,301.81
2019-06-26T00:14:48.288Z,301.44
2019-06-26T00:15:48.300Z,301.74
2019-06-26T00:16:48.301Z,301.87
2019-06-26T00:17:48.300Z,301.56
2019-06-26T00:18:48.260Z,301.64
2019-06-26T00:19:48.284Z,301.55
2019-06-26T00:20:48.214Z,301.65
2019-06-26T00:21:48.198Z,301.78
2019-06-26T00:22:48.190Z,301.32
2019-06-26T00:23:48.239Z,301.83
2019-06-26T00:24:48.198Z,301.70
2019-06-26T00:25:48.166Z,301.54
2019-06-26T00:26:48.153Z,301.58
2019-06-26T00:27:48.123Z,301.32
2019-06-26T00:28:48.148Z,301.54
2019-06-26T00:29:48.151Z,301.53
2019-06-26T00:30:48.101Z,301.34
2019-06-26T00:31:48.106Z,301.66
2019-06-26T00:32:48.071Z,301.62
2019-06-26T00:33:48.084Z,301.58
2019-06-26T00:34:48.082Z,301.50
2019-06-26T00:35:48.064Z,301.70
2019-06-26T00:36:48.055Z,301.60
2019-06-26T00:37:48.032Z,301.73
2019-06-26T00:38:48.036Z,301.83
2019-06-26T00:39:48.066Z,301.61
2019-06-26T00:40:47.992Z,301.42
2019-06-26T00:41:47.989Z,301.72
2019-06-26T00:42:47.987Z,301.64
2019-06-26T00:43:47.952Z,301.48
2019-06-26T00:44:48.000Z,301.71
2019-06-26T00:45:47.941Z,301.48
2019-06-26T00:46:47.946Z,301.92
2019-06-26T00:47:47.935Z,301.78
2019-06-26T00:48:47.898Z,301.46
2019-06-26T00:49:47.910Z,301.66
2019-06-26T00:50:47.927Z,301.65
2019-06-26T00:51:47.879Z,301.68
2019-06-26T00:52:47.881Z,301.71
2019-06-26T00:53:47.890Z,301.50
2019-06-26T00:54:47.874Z,301.53
2019-06-26T00:55:47.877Z,301.61
2019-06-26T00:56:47.834Z,301.70
2019-06-26T00:57:47.803Z,301.63
2019-06-26T00:58:47.858Z,301.69
2019-06-26T00:59:48.692Z,301.58
2019-06-26T01:00:47.775Z,301.69
2019-06-26T01:01:47.844Z,301.74
2019-06-26T01:02:47.827Z,301.78
2019-06-26T01:03:47.741Z,301.87
2019-06-26T01:04:47.726Z,301.62
2019-06-26T01:05:47.736Z,301.83
2019-06-26T01:06:47.793Z,301.46
2019-06-26T01:07:47.716Z,301.90
2019-06-26T01:08:47.691Z,302.02
2019-06-26T01:09:47.786Z,301.74
2019-06-26T01:10:47.672Z,301.79
2019-06-26T01:11:47.761Z,301.69
2019-06-26T01:12:47.637Z,301.69
2019-06-26T01:13:57.810Z,301.70
2019-06-26T01:14:48.627Z,301.60
2019-06-26T01:15:47.620Z,301.65
2019-06-26T01:16:47.607Z,301.75
2019-06-26T01:17:47.629Z,301.46
2019-06-26T01:18:47.593Z,301.53
2019-06-26T01:19:48.182Z,301.67
2019-06-26T01:20:47.561Z,301.41
2019-06-26T01:21:47.622Z,301.74
2019-06-26T01:22:47.573Z,301.48
2019-06-26T01:23:47.530Z,301.71
2019-06-26T01:24:47.529Z,301.68
2019-06-26T01:25:47.568Z,301.73
2019-06-26T01:26:47.513Z,301.67
2019-06-26T01:27:47.518Z,301.50
2019-06-26T01:28:47.483Z,301.74
2019-06-26T01:29:47.535Z,301.42
2019-06-26T01:30:47.460Z,301.77
2019-06-26T01:31:47.445Z,301.77
2019-06-26T01:32:47.448Z,301.73
2019-06-26T01:33:47.446Z,301.70
2019-06-26T01:34:47.469Z,301.70
2019-06-26T01:35:47.406Z,301.96
2019-06-26T01:36:47.393Z,301.70
2019-06-26T01:37:47.397Z,301.71
2019-06-26T01:38:47.384Z,301.98
2019-06-26T01:39:47.373Z,301.46
2019-06-26T01:40:47.341Z,301.74
2019-06-26T01:41:47.340Z,301.60
2019-06-26T01:42:47.326Z,301.81
2019-06-26T01:43:47.323Z,301.58
2019-06-26T01:44:47.315Z,301.90
2019-06-26T01:45:47.340Z,301.82
2019-06-26T01:46:47.329Z,301.91
2019-06-26T01:47:47.297Z,301.73
2019-06-26T01:48:47.255Z,301.85
2019-06-26T01:49:47.268Z,301.87
2019-06-26T01:50:47.341Z,301.88
2019-06-26T01:51:47.437Z,301.87
2019-06-26T01:52:47.258Z,301.71
2019-06-26T01:53:47.229Z,301.86
2019-06-26T01:54:47.267Z,301.82
2019-06-26T01:55:47.205Z,301.89
2019-06-26T01:56:47.174Z,301.73
2019-06-26T01:57:47.176Z,301.99
2019-06-26T01:58:47.191Z,301.94
2019-06-26T01:59:47.199Z,301.85
2019-06-26T02:00:47.170Z,301.89
2019-06-26T02:01:47.122Z,301.97
2019-06-26T02:02:47.127Z,301.86
2019-06-26T02:03:47.119Z,302.05
2019-06-26T02:04:47.129Z,302.22
2019-06-26T02:05:47.340Z,301.98
2019-06-26T02:06:47.077Z,301.99
2019-06-26T02:07:47.074Z,301.92
2019-06-26T02:08:47.375Z,301.96
2019-06-26T02:09:47.056Z,301.89
2019-06-26T02:10:47.022Z,302.06
2019-06-26T02:11:47.135Z,302.02
2019-06-26T02:12:47.002Z,301.96
2019-06-26T02:13:47.012Z,302.12
2019-06-26T02:14:46.980Z,301.84
2019-06-26T02:15:46.967Z,302.01
2019-06-26T02:16:46.956Z,301.72
2019-06-26T02:17:46.957Z,301.87
2019-06-26T02:18:46.945Z,302.22
2019-06-26T02:19:46.963Z,301.75
2019-06-26T02:20:46.932Z,301.99
2019-06-26T02:21:46.992Z,302.18
2019-06-26T02:22:49.540Z,302.05
2019-06-26T02:23:46.903Z,301.91
2019-06-26T02:24:46.870Z,301.70
2019-06-26T02:25:46.862Z,302.08
2019-06-26T02:26:46.886Z,302.01
2019-06-26T02:27:46.902Z,301.87
2019-06-26T02:28:46.841Z,302.24
2019-06-26T02:29:46.838Z,302.03
2019-06-26T02:30:46.816Z,301.60
2019-06-26T02:31:46.859Z,302.01
2019-06-26T02:32:46.780Z,302.03
2019-06-26T02:33:46.820Z,302.08
2019-06-26T02:34:46.780Z,301.78
2019-06-26T02:35:46.762Z,302.08
2019-06-26T02:36:46.793Z,301.76
2019-06-26T02:37:46.765Z,301.87
2019-06-26T02:38:46.711Z,301.88
2019-06-26T02:39:46.752Z,301.81
2019-06-26T02:40:46.719Z,301.75
2019-06-26T02:41:46.697Z,301.90
2019-06-26T02:42:46.697Z,301.74
2019-06-26T02:43:46.728Z,301.93
2019-06-26T02:44:53.381Z,301.72
2019-06-26T02:45:47.639Z,302.07
2019-06-26T02:46:46.663Z,301.90
2019-06-26T02:47:46.634Z,301.97
2019-06-26T02:48:46.647Z,301.75
2019-06-26T02:49:46.611Z,301.91
2019-06-26T02:50:46.592Z,302.20
2019-06-26T02:51:46.693Z,302.01
2019-06-26T02:52:46.572Z,301.93
2019-06-26T02:53:46.651Z,302.15
2019-06-26T02:54:46.589Z,302.09
2019-06-26T02:55:46.576Z,302.13
2019-06-26T02:56:46.588Z,302.30
2019-06-26T02:57:46.540Z,302.17
2019-06-26T02:58:46.535Z,302.01
2019-06-26T02:59:46.548Z,302.09
2019-06-26T03:00:46.497Z,302.01
2019-06-26T03:01:46.489Z,302.30
2019-06-26T03:02:46.495Z,302.10
2019-06-26T03:03:46.469Z,302.24
2019-06-26T03:04:46.454Z,302.62
2019-06-26T03:05:46.487Z,302.42
2019-06-26T03:06:46.446Z,302.28
2019-06-26T03:07:46.431Z,302.58
2019-06-26T03:08:46.434Z,302.29
2019-06-26T03:09:46.425Z,302.45
2019-06-26T03:10:46.400Z,302.02
2019-06-26T03:11:46.385Z,302.16
2019-06-26T03:12:46.472Z,302.27
2019-06-26T03:13:46.360Z,302.32
2019-06-26T03:14:46.349Z,302.16
2019-06-26T03:15:50.190Z,302.29
2019-06-26T03:16:46.333Z,302.27
2019-06-26T03:17:55.423Z,302.47
2019-06-26T03:18:47.303Z,302.50
2019-06-26T03:19:46.286Z,302.42
2019-06-26T03:20:46.328Z,302.66
2019-06-26T03:21:46.271Z,302.45
2019-06-26T03:22:46.277Z,302.45
2019-06-26T03:23:46.273Z,302.36
2019-06-26T03:24:46.252Z,302.53
2019-06-26T03:25:46.283Z,302.27
2019-06-26T03:26:46.248Z,302.48
2019-06-26T03:27:46.228Z,302.52
2019-06-26T03:28:46.744Z,302.55
2019-06-26T03:29:46.276Z,302.44
2019-06-26T03:30:46.228Z,302.70
2019-06-26T03:31:46.240Z,302.43
2019-06-26T03:32:46.202Z,302.49
2019-06-26T03:33:46.145Z,302.47
2019-06-26T03:34:46.175Z,302.59
2019-06-26T03:35:46.171Z,302.74
2019-06-26T03:36:46.152Z,302.42
2019-06-26T03:37:46.122Z,302.58
2019-06-26T03:38:46.105Z,302.59
2019-06-26T03:39:46.090Z,302.52
2019-06-26T03:40:46.093Z,302.31
2019-06-26T03:41:46.106Z,302.74
2019-06-26T03:42:46.116Z,302.77
2019-06-26T03:43:46.055Z,302.57
2019-06-26T03:44:46.030Z,302.60
2019-06-26T03:45:46.108Z,302.88
2019-06-26T03:46:46.107Z,302.74
2019-06-26T03:47:46.035Z,303.04
2019-06-26T03:48:46.010Z,302.64
2019-06-26T03:49:45.979Z,302.61
2019-06-26T03:50:45.961Z,302.94
2019-06-26T03:51:46.008Z,302.76
2019-06-26T03:52:45.980Z,302.76
2019-06-26T03:53:45.977Z,302.54
2019-06-26T03:54:45.933Z,302.77
2019-06-26T03:55:45.942Z,302.63
2019-06-26T03:56:45.890Z,302.65
2019-06-26T03:57:45.904Z,302.62
2019-06-26T03:58:46.005Z,302.69
2019-06-26T03:59:45.889Z,302.74
2019-06-26T04:00:45.871Z,302.94
2019-06-26T04:01:45.846Z,302.60
2019-06-26T04:02:45.944Z,302.72
2019-06-26T04:03:45.875Z,302.92
2019-06-26T04:04:45.826Z,302.62
2019-06-26T04:05:45.820Z,302.80
2019-06-26T04:06:45.802Z,302.75
2019-06-26T04:07:45.791Z,302.66
2019-06-26T04:08:45.868Z,302.71
2019-06-26T04:09:45.756Z,302.79
2019-06-26T04:10:45.747Z,302.83
2019-06-26T04:11:46.768Z,302.88
2019-06-26T04:12:45.807Z,302.65
2019-06-26T04:13:45.754Z,302.75
2019-06-26T04:14:45.727Z,302.92
2019-06-26T04:15:45.699Z,302.63
2019-06-26T04:16:45.685Z,303.04
2019-06-26T04:17:45.789Z,302.85
2019-06-26T04:18:45.771Z,302.74
2019-06-26T04:19:45.728Z,302.88
2019-06-26T04:20:45.645Z,303.00
2019-06-26T04:21:45.663Z,302.72
2019-06-26T04:22:48.747Z,302.75
2019-06-26T04:23:45.605Z,302.89
2019-06-26T04:24:45.598Z,302.57
2019-06-26T04:25:45.598Z,302.79
2019-06-26T04:26:45.608Z,302.58
2019-06-26T04:27:45.567Z,302.65
2019-06-26T04:28:45.556Z,302.62
2019-06-26T04:29:45.573Z,302.80
2019-06-26T04:30:46.251Z,302.79
2019-06-26T04:31:45.524Z,302.83
2019-06-26T04:32:48.398Z,302.75
2019-06-26T04:33:45.555Z,302.76
2019-06-26T04:34:45.529Z,302.96
2019-06-26T04:35:47.298Z,302.67
2019-06-26T04:36:45.461Z,302.69
2019-06-26T04:37:46.025Z,302.75
2019-06-26T04:38:49.947Z,302.87
2019-06-26T04:39:45.443Z,302.91
2019-06-26T04:40:45.467Z,303.02
2019-06-26T04:41:45.446Z,302.99
2019-06-26T04:42:49.791Z,302.98
2019-06-26T04:43:56.883Z,303.06
2019-06-26T04:44:48.591Z,303.05
2019-06-26T04:45:57.753Z,302.88
2019-06-26T04:46:46.365Z,303.10
2019-06-26T04:47:45.435Z,302.87
2019-06-26T04:48:45.448Z,303.01
2019-06-26T04:49:48.102Z,303.25
2019-06-26T04:50:50.603Z,302.92
2019-06-26T04:51:49.110Z,303.08
2019-06-26T04:52:47.231Z,303.02
2019-06-26T04:53:48.026Z,303.00
2019-06-26T04:54:48.213Z,303.33
2019-06-26T04:55:46.257Z,303.00
2019-06-26T04:56:58.130Z,303.04
2019-06-26T04:57:45.255Z,303.32
2019-06-26T04:58:45.243Z,303.14
2019-06-26T04:59:45.214Z,303.29
2019-06-26T05:00:45.205Z,303.05
2019-06-26T05:01:45.203Z,302.87
2019-06-26T05:02:45.192Z,303.24
2019-06-26T05:03:45.219Z,303.27
2019-06-26T05:04:45.187Z,303.16
2019-06-26T05:05:45.373Z,303.14
2019-06-26T05:06:45.310Z,303.25
2019-06-26T05:07:45.687Z,302.85
2019-06-26T05:08:45.547Z,303.25
2019-06-26T05:09:47.417Z,302.88
2019-06-26T05:10:51.268Z,303.28
2019-06-26T05:11:45.975Z,303.21
2019-06-26T05:12:45.094Z,303.24
2019-06-26T05:13:45.063Z,303.18
2019-06-26T05:14:45.062Z,303.09
2019-06-26T05:15:45.066Z,303.22
2019-06-26T05:16:45.039Z,303.08
2019-06-26T05:17:45.041Z,303.15
2019-06-26T05:18:45.013Z,302.98
2019-06-26T05:19:45.057Z,303.28
2019-06-26T05:20:45.009Z,302.95
2019-06-26T05:21:45.033Z,303.18
2019-06-26T05:22:44.977Z,302.85
2019-06-26T05:23:44.983Z,303.25
2019-06-26T05:24:46.536Z,303.09
2019-06-26T05:25:45.050Z,303.02
2019-06-26T05:26:45.067Z,302.81
2019-06-26T05:27:44.920Z,303.06
2019-06-26T05:28:44.916Z,303.16
2019-06-26T05:29:44.921Z,303.08
2019-06-26T05:30:44.961Z,303.10
2019-06-26T05:31:44.941Z,302.81
2019-06-26T05:32:44.900Z,303.05
2019-06-26T05:33:44.899Z,302.85
2019-06-26T05:34:44.854Z,302.98
2019-06-26T05:37:03.307Z,292.16
2019-06-26T05:38:05.877Z,302.57
2019-06-26T05:39:04.218Z,302.76
2019-06-26T05:40:03.139Z,302.96
2019-06-26T05:41:03.034Z,302.88
2019-06-26T05:42:06.562Z,303.09
2019-06-26T05:44:20.432Z,291.02
2019-06-26T05:45:20.092Z,302.53
2019-06-26T05:46:30.592Z,302.80
2019-06-26T05:47:22.099Z,302.74
2019-06-26T05:48:20.005Z,302.73
2019-06-26T05:49:20.022Z,302.89
2019-06-26T05:50:19.969Z,303.07
2019-06-26T05:51:19.958Z,303.07
2019-06-26T05:52:20.015Z,302.93
2019-06-26T05:53:19.956Z,302.94
2019-06-26T05:54:19.962Z,302.95
2019-06-26T05:55:19.952Z,302.88
2019-06-26T05:56:19.926Z,302.66
2019-06-26T05:57:19.946Z,302.90
2019-06-26T05:58:19.954Z,302.68
2019-06-26T05:59:19.954Z,302.85
2019-06-26T06:00:19.931Z,302.67
2019-06-26T06:01:19.899Z,302.59
2019-06-26T06:02:19.903Z,303.05
2019-06-26T06:03:19.865Z,302.81
2019-06-26T06:04:19.861Z,302.71
2019-06-26T06:05:19.850Z,302.87
2019-06-26T06:06:19.842Z,302.82
2019-06-26T06:07:19.833Z,302.67
2019-06-26T06:08:19.833Z,302.77
2019-06-26T06:09:19.795Z,302.92
2019-06-26T06:10:19.781Z,302.89
2019-06-26T06:11:19.948Z,302.57
2019-06-26T06:12:19.761Z,302.72
2019-06-26T06:13:19.751Z,302.47
2019-06-26T06:14:19.755Z,302.68
2019-06-26T06:15:19.741Z,302.79
2019-06-26T06:16:19.757Z,302.75
2019-06-26T06:17:19.705Z,302.74
2019-06-26T06:18:19.692Z,302.76
2019-06-26T06:19:19.812Z,302.74
2019-06-26T06:20:19.744Z,302.46
2019-06-26T06:21:19.659Z,302.56
2019-06-26T06:22:19.655Z,302.55
2019-06-26T06:23:19.709Z,302.79
2019-06-26T06:24:19.703Z,302.88
2019-06-26T06:25:21.486Z,302.45
2019-06-26T06:26:19.669Z,302.56
2019-06-26T06:27:19.602Z,302.62
2019-06-26T06:28:19.622Z,302.54
2019-06-26T06:29:19.651Z,302.62
2019-06-26T06:30:19.584Z,302.60
2019-06-26T06:31:19.546Z,302.45
2019-06-26T06:32:19.548Z,302.47
2019-06-26T06:33:19.535Z,302.58
2019-06-26T06:34:19.512Z,302.50
2019-06-26T06:35:19.556Z,302.67
2019-06-26T06:36:19.532Z,302.71
2019-06-26T06:37:19.493Z,302.44
2019-06-26T06:38:19.479Z,302.34
2019-06-26T06:39:19.481Z,302.35
2019-06-26T06:40:19.450Z,302.15
2019-06-26T06:41:19.496Z,302.54
2019-06-26T06:42:19.422Z,302.42
2019-06-26T06:43:19.423Z,302.34
2019-06-26T06:44:19.422Z,302.32
2019-06-26T06:45:19.472Z,302.28
2019-06-26T06:46:19.435Z,302.40
2019-06-26T06:47:19.377Z,302.26
2019-06-26T06:48:19.387Z,301.97
2019-06-26T06:49:19.363Z,302.63
2019-06-26T06:50:19.392Z,302.26
2019-06-26T06:51:19.359Z,302.27
2019-06-26T06:52:19.339Z,302.59
2019-06-26T06:53:19.333Z,302.19
2019-06-26T06:54:19.387Z,302.15
2019-06-26T06:55:19.352Z,302.39
2019-06-26T06:56:19.330Z,302.30
2019-06-26T06:57:19.309Z,302.29
2019-06-26T06:58:19.281Z,301.94
2019-06-26T06:59:19.248Z,302.31
2019-06-26T07:00:19.256Z,302.45
2019-06-26T07:01:19.232Z,302.09
2019-06-26T07:02:19.227Z,302.30
2019-06-26T07:03:19.299Z,302.26
2019-06-26T07:04:19.262Z,302.43
2019-06-26T07:05:19.214Z,302.02
2019-06-26T07:06:19.190Z,302.25
2019-06-26T07:07:19.266Z,302.11
2019-06-26T07:08:19.189Z,301.92
2019-06-26T07:09:19.192Z,302.03
2019-06-26T07:10:19.163Z,302.06
2019-06-26T07:11:19.154Z,302.05
2019-06-26T07:12:20.919Z,302.20
2019-06-26T07:13:19.127Z,302.14
2019-06-26T07:14:19.120Z,301.99
2019-06-26T07:15:19.104Z,301.90
2019-06-26T07:16:19.103Z,301.91
2019-06-26T07:17:21.105Z,301.91
2019-06-26T07:18:19.133Z,301.67
2019-06-26T07:19:19.055Z,301.93
2019-06-26T07:20:19.064Z,301.90
2019-06-26T07:21:19.058Z,302.00
2019-06-26T07:22:19.026Z,301.89
2019-06-26T07:23:19.086Z,301.80
2019-06-26T07:24:19.003Z,301.89
2019-06-26T07:25:19.003Z,301.97
2019-06-26T07:26:19.015Z,301.62
2019-06-26T07:27:18.962Z,302.08
2019-06-26T07:28:19.029Z,301.77
2019-06-26T07:29:18.996Z,301.77
2019-06-26T07:30:18.941Z,301.65
2019-06-26T07:31:18.992Z,301.82
2019-06-26T07:32:18.908Z,301.58
2019-06-26T07:33:18.907Z,301.56
2019-06-26T07:34:18.916Z,301.73
2019-06-26T07:35:18.878Z,301.68
2019-06-26T07:36:18.891Z,301.73
2019-06-26T07:37:18.903Z,301.83
2019-06-26T07:38:18.879Z,301.51
2019-06-26T07:39:18.848Z,301.79
2019-06-26T07:40:18.833Z,301.41
2019-06-26T07:41:18.820Z,301.47
2019-06-26T07:42:18.826Z,301.27
2019-06-26T07:43:18.835Z,301.26
2019-06-26T07:44:18.794Z,301.43
2019-06-26T07:45:18.819Z,301.35
2019-06-26T07:46:18.785Z,301.31
2019-06-26T07:47:23.518Z,301.43
2019-06-26T07:48:19.755Z,301.53
2019-06-26T07:49:18.756Z,301.13
2019-06-26T07:50:18.755Z,301.34
2019-06-26T07:51:18.993Z,301.20
2019-06-26T07:52:18.699Z,301.16
2019-06-26T07:53:18.763Z,301.32
2019-06-26T07:54:18.704Z,301.41
2019-06-26T07:55:18.714Z,301.05
2019-06-26T07:56:18.679Z,301.05
2019-06-26T07:57:19.398Z,301.00
2019-06-26T07:58:18.671Z,300.83
2019-06-26T07:59:19.016Z,301.12
2019-06-26T08:00:18.646Z,300.88
2019-06-26T08:01:18.637Z,301.13
2019-06-26T08:02:18.625Z,300.77
2019-06-26T08:03:18.660Z,300.99
2019-06-26T08:04:18.583Z,301.22
2019-06-26T08:05:18.578Z,300.82
2019-06-26T08:06:18.594Z,301.04
2019-06-26T08:07:18.565Z,300.92
2019-06-26T08:08:19.005Z,301.25
2019-06-26T08:09:18.525Z,300.90
2019-06-26T08:10:18.562Z,300.90
2019-06-26T08:11:18.510Z,300.85
2019-06-26T08:12:18.502Z,301.09
2019-06-26T08:13:18.554Z,301.03
2019-06-26T08:14:18.498Z,301.15
2019-06-26T08:15:18.551Z,300.73
2019-06-26T08:16:18.460Z,301.11
2019-06-26T08:17:18.491Z,301.01
2019-06-26T08:18:18.549Z,300.76
2019-06-26T08:19:18.442Z,300.98
2019-06-26T08:20:18.434Z,300.85
2019-06-26T08:21:18.414Z,300.87
2019-06-26T08:22:18.613Z,300.61
2019-06-26T08:23:18.392Z,300.59
2019-06-26T08:24:18.377Z,300.42
2019-06-26T08:25:18.379Z,300.38
2019-06-26T08:26:18.373Z,300.60
2019-06-26T08:27:18.367Z,300.65
2019-06-26T08:28:18.340Z,300.57
2019-06-26T08:29:18.407Z,300.46
2019-06-26T08:30:18.399Z,300.63
2019-06-26T08:31:18.326Z,300.54
2019-06-26T08:32:18.342Z,300.43
2019-06-26T08:33:18.295Z,300.52
2019-06-26T08:34:18.331Z,300.63
2019-06-26T08:35:18.380Z,300.69
2019-06-26T08:36:18.318Z,300.53
2019-06-26T08:37:18.343Z,300.27
2019-06-26T08:38:18.229Z,300.51
2019-06-26T08:39:18.257Z,300.26
2019-06-26T08:40:18.442Z,300.39
2019-06-26T08:41:18.210Z,300.47
2019-06-26T08:42:18.247Z,300.61
2019-06-26T08:43:18.205Z,300.39
2019-06-26T08:44:18.166Z,300.36
2019-06-26T08:45:18.185Z,300.35
2019-06-26T08:46:18.259Z,300.34
2019-06-26T08:47:18.168Z,300.33
2019-06-26T08:48:37.903Z,300.35
2019-06-26T08:49:25.603Z,300.13
2019-06-26T08:50:19.151Z,300.47
2019-06-26T08:51:18.204Z,300.15
2019-06-26T08:52:18.113Z,300.28
2019-06-26T08:53:18.911Z,300.27
2019-06-26T08:54:18.174Z,300.42
2019-06-26T08:55:18.067Z,300.11
2019-06-26T08:56:18.613Z,300.29
2019-06-26T08:57:18.039Z,300.27
2019-06-26T08:58:18.218Z,300.07
2019-06-26T08:59:18.196Z,300.17
2019-06-26T09:00:18.310Z,299.86
2019-06-26T09:01:18.041Z,300.11
2019-06-26T09:02:18.047Z,299.82
2019-06-26T09:03:18.006Z,299.80
2019-06-26T09:04:18.003Z,300.19
2019-06-26T09:05:17.964Z,299.93
2019-06-26T09:06:18.075Z,299.70
2019-06-26T09:07:17.977Z,300.07
2019-06-26T09:08:18.089Z,299.90
2019-06-26T09:09:17.939Z,299.92
2019-06-26T09:10:28.952Z,299.98
2019-06-26T09:11:18.117Z,299.91
2019-06-26T09:12:18.080Z,299.83
2019-06-26T09:13:18.083Z,299.85
2019-06-26T09:14:18.513Z,300.00
2019-06-26T09:15:17.869Z,299.70
2019-06-26T09:16:17.899Z,299.40
2019-06-26T09:17:17.893Z,299.72
2019-06-26T09:18:34.068Z,299.47
2019-06-26T09:19:18.876Z,299.71
2019-06-26T09:20:17.819Z,299.42
2019-06-26T09:21:17.845Z,299.77
2019-06-26T09:22:17.820Z,299.38
2019-06-26T09:23:18.165Z,299.46
2019-06-26T09:24:17.829Z,299.86
2019-06-26T09:25:22.179Z,299.66
2019-06-26T09:26:17.774Z,299.57
2019-06-26T09:27:18.445Z,299.50
2019-06-26T09:28:17.786Z,299.33
2019-06-26T09:29:17.764Z,299.23
2019-06-26T09:30:17.754Z,299.59
2019-06-26T09:31:17.798Z,299.31
2019-06-26T09:32:18.525Z,299.49
2019-06-26T09:33:17.687Z,299.34
2019-06-26T09:34:17.726Z,299.09
2019-06-26T09:35:17.736Z,299.40
2019-06-26T09:36:28.094Z,299.11
2019-06-26T09:37:18.408Z,299.30
2019-06-26T09:38:17.957Z,299.17
2019-06-26T09:39:18.086Z,299.32
2019-06-26T09:40:17.749Z,299.34
2019-06-26T09:41:19.453Z,299.10
2019-06-26T09:42:19.754Z,299.13
2019-06-26T09:43:17.722Z,298.85
2019-06-26T09:44:17.616Z,299.00
2019-06-26T09:45:17.587Z,299.27
2019-06-26T09:46:17.656Z,298.95
2019-06-26T09:47:17.622Z,299.19
2019-06-26T09:48:17.558Z,298.97
2019-06-26T09:49:17.581Z,298.88
2019-06-26T09:50:17.811Z,299.10
2019-06-26T09:51:17.595Z,299.00
2019-06-26T09:52:17.478Z,299.00
2019-06-26T09:53:17.987Z,298.75
2019-06-26T09:54:17.487Z,298.79
2019-06-26T09:55:17.484Z,299.00
2019-06-26T09:56:17.512Z,298.98
2019-06-26T09:57:17.468Z,299.08
2019-06-26T09:58:17.419Z,298.83
2019-06-26T09:59:17.417Z,299.04
2019-06-26T10:00:17.524Z,298.80
2019-06-26T10:01:17.473Z,298.55
2019-06-26T10:02:17.422Z,298.71
2019-06-26T10:03:17.376Z,298.79
2019-06-26T10:04:17.427Z,298.45
2019-06-26T10:05:17.523Z,298.84
2019-06-26T10:06:17.346Z,298.82
2019-06-26T10:07:17.369Z,298.55
2019-06-26T10:08:17.320Z,298.61
2019-06-26T10:09:17.335Z,298.66
2019-06-26T10:10:17.357Z,298.72
2019-06-26T10:11:17.301Z,298.73
2019-06-26T10:12:17.342Z,298.49
2019-06-26T10:13:17.283Z,298.56
2019-06-26T10:14:17.510Z,298.47
2019-06-26T10:15:17.245Z,298.37
2019-06-26T10:16:17.287Z,298.02
2019-06-26T10:17:17.250Z,298.82
2019-06-26T10:18:17.252Z,298.45
2019-06-26T10:19:17.251Z,298.65
2019-06-26T10:20:17.232Z,298.46
2019-06-26T10:21:17.556Z,298.51
2019-06-26T10:22:17.211Z,298.75
2019-06-26T10:23:18.046Z,298.40
2019-06-26T10:24:17.184Z,298.73
2019-06-26T10:25:17.188Z,298.62
2019-06-26T10:26:17.418Z,298.41
2019-06-26T10:27:17.128Z,298.55
2019-06-26T10:28:17.194Z,298.20
2019-06-26T10:29:17.247Z,298.43
2019-06-26T10:30:17.228Z,298.31
2019-06-26T10:31:18.537Z,298.42
2019-06-26T10:32:17.090Z,298.61
2019-06-26T10:33:17.072Z,298.25
2019-06-26T10:34:17.140Z,298.23
2019-06-26T10:35:17.137Z,298.29
2019-06-26T10:36:17.053Z,298.28
2019-06-26T10:37:17.057Z,298.42
2019-06-26T10:38:17.016Z,298.19
2019-06-26T10:39:17.048Z,298.46
2019-06-26T10:40:17.037Z,298.32
2019-06-26T10:41:16.994Z,298.16
2019-06-26T10:42:17.000Z,298.33
2019-06-26T10:43:17.041Z,298.42
2019-06-26T10:44:16.998Z,298.14
2019-06-26T10:45:16.942Z,298.73
2019-06-26T10:46:16.936Z,298.45
2019-06-26T10:47:16.963Z,298.50
2019-06-26T10:48:16.923Z,298.30
2019-06-26T10:49:27.117Z,298.35
2019-06-26T10:50:17.916Z,298.21
2019-06-26T10:51:18.545Z,298.24
2019-06-26T10:52:16.923Z,298.19
2019-06-26T10:53:17.502Z,298.48
2019-06-26T10:54:16.864Z,298.17
2019-06-26T10:55:16.959Z,297.79
2019-06-26T10:56:16.979Z,297.93
2019-06-26T10:57:17.502Z,297.72
2019-06-26T10:58:16.841Z,298.06
2019-06-26T10:59:16.849Z,298.28
2019-06-26T11:00:16.812Z,298.08
2019-06-26T11:01:17.626Z,297.82
2019-06-26T11:02:17.509Z,297.87
2019-06-26T11:03:16.775Z,297.76
2019-06-26T11:04:16.824Z,297.84
2019-06-26T11:05:16.817Z,297.82
2019-06-26T11:06:16.751Z,297.73
2019-06-26T11:07:16.729Z,298.10
2019-06-26T11:08:16.754Z,297.92
2019-06-26T11:09:16.697Z,297.92
2019-06-26T11:10:16.759Z,297.85
2019-06-26T11:11:16.772Z,297.85
2019-06-26T11:12:16.679Z,298.12
2019-06-26T11:13:16.687Z,297.69
2019-06-26T11:14:16.763Z,297.87
2019-06-26T11:15:16.695Z,297.88
2019-06-26T11:16:16.662Z,297.90
2019-06-26T11:17:16.651Z,297.98
2019-06-26T11:18:16.623Z,298.09
2019-06-26T11:19:16.630Z,297.92
2019-06-26T11:20:16.576Z,297.77
2019-06-26T11:21:16.594Z,298.07
2019-06-26T11:22:16.660Z,297.72
2019-06-26T11:23:16.607Z,297.76
2019-06-26T11:24:16.585Z,298.12
2019-06-26T11:25:16.568Z,297.54
2019-06-26T11:26:16.544Z,297.60
2019-06-26T11:27:16.623Z,297.63
2019-06-26T11:28:16.510Z,297.73
2019-06-26T11:29:16.504Z,297.73
2019-06-26T11:30:16.566Z,297.58
2019-06-26T11:31:16.492Z,297.51
2019-06-26T11:32:16.521Z,297.50
2019-06-26T11:33:16.475Z,297.69
2019-06-26T11:34:16.474Z,297.46
2019-06-26T11:35:16.463Z,297.31
2019-06-26T11:36:16.439Z,297.51
2019-06-26T11:56:12.052Z,284.15
2019-06-26T11:56:40.153Z,296.25
2019-06-26T11:58:15.052Z,296.80
2019-06-26T11:58:38.701Z,296.78
2019-06-26T11:59:38.372Z,296.95
2019-06-26T12:00:41.458Z,296.76
2019-06-26T12:01:42.251Z,296.95
2019-06-26T12:02:56.896Z,296.74
2019-06-26T12:03:38.290Z,296.60
2019-06-26T12:04:38.363Z,296.87
2019-06-26T12:05:39.290Z,296.92
2019-06-26T12:06:39.149Z,297.04
2019-06-26T12:07:38.299Z,296.95
2019-06-26T12:08:38.288Z,297.05
2019-06-26T12:09:38.248Z,296.80
2019-06-26T12:10:38.251Z,296.97
2019-06-26T12:11:38.262Z,296.92
2019-06-26T12:12:38.229Z,296.99
2019-06-26T12:13:38.207Z,296.70
2019-06-26T12:14:38.250Z,296.81
2019-06-26T12:15:38.670Z,296.44
2019-06-26T12:16:38.183Z,296.77
2019-06-26T12:17:38.255Z,296.41
2019-06-26T12:18:38.180Z,296.30
2019-06-26T12:19:38.163Z,296.02
2019-06-26T12:20:38.176Z,296.24
2019-06-26T12:21:38.153Z,296.43
2019-06-26T12:22:38.230Z,296.10
2019-06-26T12:23:38.134Z,296.18
2019-06-26T12:24:40.159Z,296.18
2019-06-26T12:25:38.194Z,296.34
2019-06-26T12:26:38.060Z,296.44
2019-06-26T12:27:38.070Z,296.49
2019-06-26T12:28:38.083Z,296.42
2019-06-26T12:29:38.083Z,296.37
2019-06-26T12:30:38.658Z,296.24
2019-06-26T12:31:38.111Z,296.54
2019-06-26T12:32:42.290Z,296.37
2019-06-26T12:33:39.039Z,296.36
2019-06-26T12:34:38.008Z,296.26
2019-06-26T12:35:38.008Z,296.56
2019-06-26T12:36:37.975Z,296.34
2019-06-26T12:37:38.422Z,296.52
2019-06-26T12:38:39.248Z,296.61
2019-06-26T12:39:38.009Z,296.72
2019-06-26T12:40:37.966Z,296.43
2019-06-26T12:41:37.959Z,296.54
2019-06-26T12:42:37.957Z,296.65
2019-06-26T12:43:37.962Z,296.38
2019-06-26T12:44:37.939Z,296.29
2019-06-26T12:45:37.963Z,296.10
2019-06-26T12:46:37.875Z,296.38
2019-06-26T12:47:37.866Z,296.12
2019-06-26T12:48:37.888Z,296.25
2019-06-26T12:49:38.667Z,295.61